Time;durP1;ratioP1;P1;durP2;ratioP2;P2;SDS_P1;SDS_P2;PMS_P1;PMS_P2;Temp;Humidity;BMP_temperature;BMP_pressure;BME280_temperature;BME280_humidity;BME280_pressure;Samples;Min_cycle;Max_cycle;Signal;HPM_P1;HPM_P2
2023/06/27 00:01:40;;;;;;;5.10;2.57;;;;;;;;;;5073756;28;20219;-55
2023/06/27 00:04:06;;;;;;;5.13;2.27;;;;;;;;;;5073431;28;20223;-55
2023/06/27 00:06:32;;;;;;;5.30;2.60;;;;;;;;;;5073193;28;20609;-55
2023/06/27 00:08:58;;;;;;;4.83;2.20;;;;;;;;;;5073734;28;20191;-54
2023/06/27 00:11:24;;;;;;;3.73;1.87;;;;;;;;;;5073158;28;20686;-55
2023/06/27 00:13:52;;;;;;;4.93;2.40;;;;;;;;;;5073587;28;20203;-55
2023/06/27 00:16:18;;;;;;;7.83;2.13;;;;;;;;;;5071550;28;20298;-54
2023/06/27 00:18:48;;;;;;;7.73;2.30;;;;;;;;;;5071932;28;20278;-54
2023/06/27 00:21:14;;;;;;;5.07;2.40;;;;;;;;;;5073341;28;20200;-55
2023/06/27 00:23:40;;;;;;;4.37;2.43;;;;;;;;;;5073498;28;20223;-56
2023/06/27 00:26:06;;;;;;;5.33;2.60;;;;;;;;;;5073410;28;20258;-54
2023/06/27 00:28:33;;;;;;;5.27;2.70;;;;;;;;;;5073430;28;20286;-54
2023/06/27 00:31:00;;;;;;;5.53;2.20;;;;;;;;;;5073390;28;20288;-54
2023/06/27 00:33:26;;;;;;;6.43;2.40;;;;;;;;;;5073223;28;20203;-54
2023/06/27 00:35:52;;;;;;;4.10;2.10;;;;;;;;;;5073219;28;20187;-55
2023/06/27 00:38:18;;;;;;;6.33;2.20;;;;;;;;;;5073075;28;20580;-55
2023/06/27 00:40:44;;;;;;;7.77;2.50;;;;;;;;;;5073103;28;20705;-55
2023/06/27 00:43:10;;;;;;;7.43;2.47;;;;;;;;;;5073222;28;20228;-56
2023/06/27 00:45:36;;;;;;;5.30;2.47;;;;;;;;;;5073038;28;20195;-54
2023/06/27 00:48:04;;;;;;;6.03;2.27;;;;;;;;;;5073080;28;20203;-54
2023/06/27 00:50:30;;;;;;;8.10;2.40;;;;;;;;;;5072989;28;20233;-54
2023/06/27 00:52:57;;;;;;;5.87;2.90;;;;;;;;;;5073065;28;20250;-54
2023/06/27 00:55:23;;;;;;;4.30;2.60;;;;;;;;;;5072752;28;20290;-54
2023/06/27 00:57:49;;;;;;;8.17;2.80;;;;;;;;;;5072739;28;20282;-55
2023/06/27 01:00:16;;;;;;;6.20;2.60;;;;;;;;;;5072429;28;20249;-54
2023/06/27 01:02:42;;;;;;;10.77;2.70;;;;;;;;;;5072388;28;20646;-55
2023/06/27 01:05:09;;;;;;;3.97;2.40;;;;;;;;;;5072426;28;20755;-55
2023/06/27 01:07:38;;;;;;;5.43;2.40;;;;;;;;;;5072737;28;20203;-55
2023/06/27 01:10:07;;;;;;;6.07;2.40;;;;;;;;;;5072620;28;20207;-54
2023/06/27 01:12:38;;;;;;;9.20;2.57;;;;;;;;;;5072833;28;20254;-55
2023/06/27 01:15:05;;;;;;;5.03;2.30;;;;;;;;;;5072490;28;20214;-55
2023/06/27 01:17:32;;;;;;;5.47;2.77;;;;;;;;;;5072556;28;20207;-55
2023/06/27 01:19:59;;;;;;;3.53;2.30;;;;;;;;;;5072348;28;20282;-54
2023/06/27 01:22:30;;;;;;;7.43;1.97;;;;;;;;;;5072354;28;20586;-55
2023/06/27 01:24:59;;;;;;;4.37;2.70;;;;;;;;;;5072290;28;20227;-54
2023/06/27 01:27:25;;;;;;;7.20;2.70;;;;;;;;;;5072083;28;20259;-54
2023/06/27 01:29:51;;;;;;;4.07;2.63;;;;;;;;;;5072227;28;20242;-55
2023/06/27 01:32:19;;;;;;;4.50;2.50;;;;;;;;;;5072015;28;20227;-55
2023/06/27 01:34:48;;;;;;;3.33;2.00;;;;;;;;;;5071997;28;20231;-54
2023/06/27 01:37:17;;;;;;;5.83;2.40;;;;;;;;;;5072010;28;20231;-55
2023/06/27 01:39:45;;;;;;;5.20;2.20;;;;;;;;;;5072052;28;20237;-55
2023/06/27 01:42:16;;;;;;;4.33;2.00;;;;;;;;;;5071861;28;20282;-54
2023/06/27 01:44:43;;;;;;;2.63;1.97;;;;;;;;;;5072080;28;20640;-54
2023/06/27 01:47:10;;;;;;;5.93;2.33;;;;;;;;;;5071770;28;20211;-54
2023/06/27 01:49:36;;;;;;;3.37;2.20;;;;;;;;;;5071907;28;20195;-54
2023/06/27 01:52:03;;;;;;;5.53;1.97;;;;;;;;;;5071727;28;20199;-54
2023/06/27 01:54:29;;;;;;;3.03;2.27;;;;;;;;;;5071609;28;20198;-54
2023/06/27 01:56:55;;;;;;;4.83;1.97;;;;;;;;;;5071596;28;20575;-54
2023/06/27 01:59:22;;;;;;;3.63;2.13;;;;;;;;;;5071495;28;20211;-54
2023/06/27 02:01:48;;;;;;;3.47;1.97;;;;;;;;;;5071580;28;20620;-54
2023/06/27 02:04:14;;;;;;;3.33;1.93;;;;;;;;;;5071289;28;20701;-55
2023/06/27 02:06:40;;;;;;;4.37;2.20;;;;;;;;;;5071467;28;20685;-54
2023/06/27 02:09:06;;;;;;;5.47;2.13;;;;;;;;;;5071439;28;20195;-54
2023/06/27 02:11:32;;;;;;;2.73;1.90;;;;;;;;;;5071164;28;20547;-54
2023/06/27 02:13:58;;;;;;;4.40;2.00;;;;;;;;;;5071115;28;20224;-54
2023/06/27 02:16:25;;;;;;;3.87;2.00;;;;;;;;;;5071127;28;20210;-54
2023/06/27 02:18:51;;;;;;;4.77;1.90;;;;;;;;;;5071240;28;20202;-54
2023/06/27 02:21:17;;;;;;;2.90;1.80;;;;;;;;;;5071244;28;20221;-54
2023/06/27 02:23:43;;;;;;;3.77;1.90;;;;;;;;;;5071210;28;20223;-54
2023/06/27 02:26:10;;;;;;;5.70;2.03;;;;;;;;;;5070996;28;20235;-54
2023/06/27 02:28:36;;;;;;;4.50;2.43;;;;;;;;;;5071024;28;20200;-54
2023/06/27 02:31:02;;;;;;;5.10;2.37;;;;;;;;;;5071296;28;20257;-54
2023/06/27 02:33:29;;;;;;;5.10;2.10;;;;;;;;;;5070978;28;20192;-54
2023/06/27 02:35:55;;;;;;;5.93;2.30;;;;;;;;;;5071068;28;20215;-54
2023/06/27 02:38:21;;;;;;;3.70;2.60;;;;;;;;;;5070970;28;20210;-54
2023/06/27 02:40:47;;;;;;;4.80;2.67;;;;;;;;;;5071071;28;20226;-54
2023/06/27 02:43:13;;;;;;;6.47;2.57;;;;;;;;;;5070818;28;20203;-54
2023/06/27 02:45:40;;;;;;;2.67;2.10;;;;;;;;;;5071012;28;20195;-54
2023/06/27 02:48:07;;;;;;;5.67;2.70;;;;;;;;;;5070876;28;20692;-54
2023/06/27 02:50:34;;;;;;;5.57;2.77;;;;;;;;;;5070951;28;20653;-54
2023/06/27 02:53:00;;;;;;;5.97;2.53;;;;;;;;;;5070925;28;20195;-54
2023/06/27 02:55:26;;;;;;;6.53;2.80;;;;;;;;;;5070892;28;20188;-54
2023/06/27 02:57:52;;;;;;;5.30;2.40;;;;;;;;;;5070945;28;20203;-54
2023/06/27 03:00:18;;;;;;;5.77;2.70;;;;;;;;;;5070997;28;20202;-54
2023/06/27 03:02:44;;;;;;;2.70;2.20;;;;;;;;;;5070955;28;20210;-54
2023/06/27 03:05:10;;;;;;;4.57;2.63;;;;;;;;;;5070178;28;20237;-54
2023/06/27 03:07:37;;;;;;;4.00;2.40;;;;;;;;;;5070036;28;20294;-54
2023/06/27 03:10:04;;;;;;;6.83;3.00;;;;;;;;;;5070861;28;20613;-54
2023/06/27 03:12:30;;;;;;;4.80;2.57;;;;;;;;;;5070972;28;20225;-54
2023/06/27 03:14:56;;;;;;;4.20;2.40;;;;;;;;;;5070937;28;20199;-54
2023/06/27 03:17:22;;;;;;;4.93;2.57;;;;;;;;;;5070313;28;20225;-55
2023/06/27 03:19:48;;;;;;;4.33;2.33;;;;;;;;;;5070656;28;20214;-54
2023/06/27 03:22:14;;;;;;;3.93;2.30;;;;;;;;;;5070522;28;20598;-54
2023/06/27 03:24:41;;;;;;;4.67;2.40;;;;;;;;;;5072424;28;20223;-53
2023/06/27 03:27:07;;;;;;;4.20;2.70;;;;;;;;;;5074377;28;20235;-54
2023/06/27 03:29:33;;;;;;;6.20;2.90;;;;;;;;;;5074597;28;20192;-54
2023/06/27 03:31:59;;;;;;;4.60;2.47;;;;;;;;;;5074512;28;20599;-54
2023/06/27 03:34:25;;;;;;;4.00;2.50;;;;;;;;;;5074352;28;20196;-54
2023/06/27 03:36:51;;;;;;;3.50;2.30;;;;;;;;;;5074469;28;20684;-54
2023/06/27 03:39:17;;;;;;;4.67;2.63;;;;;;;;;;5074338;28;20187;-54
2023/06/27 03:41:44;;;;;;;3.27;2.67;;;;;;;;;;5074310;28;20196;-54
2023/06/27 03:44:10;;;;;;;5.57;2.80;;;;;;;;;;5074191;28;20227;-54
2023/06/27 03:46:36;;;;;;;5.30;2.93;;;;;;;;;;5074143;28;20203;-53
2023/06/27 03:49:02;;;;;;;3.73;2.63;;;;;;;;;;5074283;28;20283;-53
2023/06/27 03:51:28;;;;;;;6.17;2.73;;;;;;;;;;5074090;28;20225;-54
2023/06/27 03:53:54;;;;;;;4.17;2.60;;;;;;;;;;5074248;28;20218;-53
2023/06/27 03:56:20;;;;;;;7.77;3.00;;;;;;;;;;5074038;28;20209;-54
2023/06/27 03:58:48;;;;;;;9.00;3.10;;;;;;;;;;5073939;28;20199;-54
2023/06/27 04:01:14;;;;;;;12.77;3.33;;;;;;;;;;5073846;28;20514;-53
2023/06/27 04:03:40;;;;;;;6.33;3.00;;;;;;;;;;5073655;28;20289;-53
2023/06/27 04:06:05;;;;;;;6.07;3.30;;;;;;;;;;5073764;28;20223;-53
2023/06/27 04:08:31;;;;;;;7.10;2.90;;;;;;;;;;5073708;28;20200;-54
2023/06/27 04:10:57;;;;;;;4.80;3.17;;;;;;;;;;5073869;28;20603;-53
2023/06/27 04:13:23;;;;;;;5.53;2.70;;;;;;;;;;5073568;28;20199;-53
2023/06/27 04:15:51;;;;;;;7.13;3.57;;;;;;;;;;5073759;28;20199;-53
2023/06/27 04:18:17;;;;;;;4.13;3.13;;;;;;;;;;5073598;28;20204;-53
2023/06/27 04:20:43;;;;;;;6.17;3.47;;;;;;;;;;5073533;28;20199;-53
2023/06/27 04:23:09;;;;;;;7.73;3.10;;;;;;;;;;5073600;28;20609;-54
2023/06/27 04:25:36;;;;;;;4.70;2.90;;;;;;;;;;5073676;28;20223;-53
2023/06/27 04:28:02;;;;;;;5.20;3.13;;;;;;;;;;5073555;28;20233;-52
2023/06/27 04:30:29;;;;;;;6.23;3.17;;;;;;;;;;5073362;28;20187;-53
2023/06/27 04:32:56;;;;;;;6.20;3.53;;;;;;;;;;5073202;28;20203;-53
2023/06/27 04:35:23;;;;;;;5.77;3.47;;;;;;;;;;5072589;28;20196;-52
2023/06/27 04:37:51;;;;;;;4.30;3.20;;;;;;;;;;5072978;28;20629;-53
2023/06/27 04:40:17;;;;;;;5.40;3.10;;;;;;;;;;5073298;28;20203;-53
2023/06/27 04:42:45;;;;;;;7.40;3.20;;;;;;;;;;5073167;28;20257;-52
2023/06/27 04:45:11;;;;;;;6.20;3.20;;;;;;;;;;5072933;28;20306;-52
2023/06/27 04:47:37;;;;;;;3.97;3.10;;;;;;;;;;5072875;28;20199;-53
2023/06/27 04:50:05;;;;;;;3.07;2.73;;;;;;;;;;5072930;28;20206;-54
2023/06/27 04:52:31;;;;;;;6.40;3.10;;;;;;;;;;5072765;28;20214;-53
2023/06/27 04:54:57;;;;;;;7.47;3.27;;;;;;;;;;5072984;28;20200;-53
2023/06/27 04:57:23;;;;;;;3.93;2.60;;;;;;;;;;5072692;28;20234;-53
2023/06/27 04:59:49;;;;;;;4.17;3.00;;;;;;;;;;5072369;28;20729;-53
2023/06/27 05:02:15;;;;;;;5.33;2.93;;;;;;;;;;5072443;28;20298;-53
2023/06/27 05:04:41;;;;;;;5.00;3.20;;;;;;;;;;5072687;28;20292;-54
2023/06/27 05:07:08;;;;;;;6.10;3.03;;;;;;;;;;5072688;28;20405;-53
2023/06/27 05:09:34;;;;;;;5.87;2.60;;;;;;;;;;5072523;28;20211;-53
2023/06/27 05:12:00;;;;;;;3.80;2.60;;;;;;;;;;5072537;28;20202;-53
2023/06/27 05:14:26;;;;;;;6.10;2.97;;;;;;;;;;5072266;28;20532;-54
2023/06/27 05:16:52;;;;;;;6.63;2.90;;;;;;;;;;5072447;28;20199;-54
2023/06/27 05:19:18;;;;;;;5.47;2.93;;;;;;;;;;5071895;28;20195;-53
2023/06/27 05:21:44;;;;;;;4.93;2.70;;;;;;;;;;5072038;28;20207;-52
2023/06/27 05:24:11;;;;;;;3.53;2.47;;;;;;;;;;5072194;28;20211;-53
2023/06/27 05:26:37;;;;;;;5.43;3.10;;;;;;;;;;5072192;28;20244;-55
2023/06/27 05:29:03;;;;;;;3.73;2.43;;;;;;;;;;5072312;28;20558;-53
2023/06/27 05:31:29;;;;;;;6.53;3.00;;;;;;;;;;5071820;28;20256;-53
2023/06/27 05:33:56;;;;;;;3.87;2.40;;;;;;;;;;5071913;28;20234;-53
2023/06/27 05:36:22;;;;;;;4.97;2.73;;;;;;;;;;5072197;28;20552;-55
2023/06/27 05:38:48;;;;;;;4.53;2.60;;;;;;;;;;5071926;28;20545;-53
2023/06/27 05:41:18;;;;;;;2.93;2.33;;;;;;;;;;5071813;28;20728;-54
2023/06/27 05:43:45;;;;;;;6.60;3.00;;;;;;;;;;5072028;28;20227;-53
2023/06/27 05:46:11;;;;;;;5.63;2.60;;;;;;;;;;5071846;28;20620;-53
2023/06/27 05:48:37;;;;;;;6.37;2.77;;;;;;;;;;5071364;28;20203;-54
2023/06/27 05:51:03;;;;;;;4.37;2.40;;;;;;;;;;5071903;28;20237;-54
2023/06/27 05:53:29;;;;;;;4.13;2.17;;;;;;;;;;5071708;28;20282;-56
2023/06/27 05:55:55;;;;;;;3.87;2.30;;;;;;;;;;5071577;28;20298;-54
2023/06/27 05:58:22;;;;;;;4.67;2.00;;;;;;;;;;5071540;28;20607;-55
2023/06/27 06:00:48;;;;;;;2.90;1.97;;;;;;;;;;5071716;28;20210;-54
2023/06/27 06:03:14;;;;;;;2.60;2.00;;;;;;;;;;5071476;28;20199;-55
2023/06/27 06:05:40;;;;;;;3.73;2.10;;;;;;;;;;5071512;28;20235;-55
2023/06/27 06:08:06;;;;;;;3.83;2.20;;;;;;;;;;5071308;28;20195;-55
2023/06/27 06:10:32;;;;;;;2.80;1.90;;;;;;;;;;5071239;28;20204;-59
2023/06/27 06:12:58;;;;;;;2.50;2.10;;;;;;;;;;5071203;28;20195;-56
2023/06/27 06:15:25;;;;;;;5.13;2.03;;;;;;;;;;5071059;28;20190;-56
2023/06/27 06:17:51;;;;;;;5.47;1.93;;;;;;;;;;5070899;28;20217;-56
2023/06/27 06:20:17;;;;;;;5.10;2.10;;;;;;;;;;5071044;28;20191;-55
2023/06/27 06:22:43;;;;;;;7.60;2.60;;;;;;;;;;5071013;28;20642;-56
2023/06/27 06:25:10;;;;;;;6.40;2.70;;;;;;;;;;5071226;28;20262;-56
2023/06/27 06:27:36;;;;;;;2.80;2.07;;;;;;;;;;5070851;28;20275;-56
2023/06/27 06:30:02;;;;;;;2.63;2.20;;;;;;;;;;5071189;28;20207;-55
2023/06/27 06:32:29;;;;;;;5.13;2.10;;;;;;;;;;5071040;28;20483;-56
2023/06/27 06:34:55;;;;;;;3.67;2.30;;;;;;;;;;5071184;28;20216;-56
2023/06/27 06:37:22;;;;;;;4.00;2.10;;;;;;;;;;5070955;28;20211;-56
2023/06/27 06:39:48;;;;;;;2.80;1.97;;;;;;;;;;5071026;28;20673;-56
2023/06/27 06:42:14;;;;;;;3.67;2.10;;;;;;;;;;5070924;28;20195;-54
2023/06/27 06:44:40;;;;;;;4.60;2.30;;;;;;;;;;5070939;28;20235;-55
2023/06/27 06:47:06;;;;;;;5.10;2.20;;;;;;;;;;5070749;28;20218;-55
2023/06/27 06:49:33;;;;;;;3.90;2.03;;;;;;;;;;5070801;28;20260;-55
2023/06/27 06:51:59;;;;;;;3.40;1.80;;;;;;;;;;5071041;28;20206;-55
2023/06/27 06:54:25;;;;;;;3.13;1.87;;;;;;;;;;5070788;28;20278;-55
2023/06/27 06:56:51;;;;;;;3.83;2.13;;;;;;;;;;5070988;28;20624;-57
2023/06/27 06:59:17;;;;;;;3.27;2.10;;;;;;;;;;5070150;28;20248;-57
2023/06/27 07:01:43;;;;;;;5.87;1.80;;;;;;;;;;5070726;28;20729;-57
2023/06/27 07:04:09;;;;;;;4.10;1.70;;;;;;;;;;5070507;28;20215;-55
2023/06/27 07:06:37;;;;;;;4.00;1.80;;;;;;;;;;5070629;28;20661;-54
2023/06/27 07:09:03;;;;;;;5.90;1.93;;;;;;;;;;5070847;28;20199;-54
2023/06/27 07:11:29;;;;;;;3.30;2.00;;;;;;;;;;5070639;28;20191;-54
2023/06/27 07:13:55;;;;;;;3.10;1.70;;;;;;;;;;5070788;28;20249;-54
2023/06/27 07:16:21;;;;;;;4.60;2.10;;;;;;;;;;5070622;28;20204;-54
2023/06/27 07:18:47;;;;;;;3.80;1.77;;;;;;;;;;5070753;28;20196;-54
2023/06/27 07:21:13;;;;;;;3.60;1.80;;;;;;;;;;5070586;28;20192;-54
2023/06/27 07:23:40;;;;;;;4.43;1.80;;;;;;;;;;5070467;28;20227;-54
2023/06/27 07:26:06;;;;;;;4.10;1.70;;;;;;;;;;5070529;28;20235;-57
2023/06/27 07:28:32;;;;;;;6.20;1.80;;;;;;;;;;5070559;28;20581;-54
2023/06/27 07:30:58;;;;;;;5.10;1.90;;;;;;;;;;5070529;28;20225;-54
2023/06/27 07:33:24;;;;;;;3.33;1.73;;;;;;;;;;5070104;28;20203;-55
2023/06/27 07:35:50;;;;;;;3.67;1.90;;;;;;;;;;5070524;28;20196;-53
2023/06/27 07:38:16;;;;;;;4.07;1.77;;;;;;;;;;5070385;28;20305;-54
2023/06/27 07:40:44;;;;;;;3.60;1.47;;;;;;;;;;5070409;28;20253;-53
2023/06/27 07:43:10;;;;;;;2.43;1.40;;;;;;;;;;5070393;28;20242;-54
2023/06/27 07:45:36;;;;;;;4.43;1.90;;;;;;;;;;5070420;28;20227;-55
2023/06/27 07:48:02;;;;;;;5.70;1.70;;;;;;;;;;5070423;28;20262;-57
2023/06/27 07:50:28;;;;;;;4.07;1.80;;;;;;;;;;5070275;28;20200;-58
2023/06/27 07:52:54;;;;;;;4.03;1.50;;;;;;;;;;5070354;28;20217;-58
2023/06/27 07:55:20;;;;;;;5.77;1.67;;;;;;;;;;5070018;28;20192;-58
2023/06/27 07:57:48;;;;;;;3.63;1.50;;;;;;;;;;5070411;28;20203;-59
2023/06/27 08:00:15;;;;;;;3.83;1.60;;;;;;;;;;5070289;28;20200;-53
2023/06/27 08:02:41;;;;;;;3.57;1.40;;;;;;;;;;5070105;28;20203;-54
2023/06/27 08:05:08;;;;;;;2.57;1.33;;;;;;;;;;5070012;28;20223;-54
2023/06/27 08:07:33;;;;;;;2.53;1.60;;;;;;;;;;5070055;28;20254;-54
2023/06/27 08:09:59;;;;;;;6.83;1.70;;;;;;;;;;5070780;28;20608;-54
2023/06/27 08:12:25;;;;;;;3.50;1.53;;;;;;;;;;5073564;28;20510;-53
2023/06/27 08:14:53;;;;;;;4.70;1.70;;;;;;;;;;5073890;28;20673;-53
2023/06/27 08:17:19;;;;;;;4.30;2.07;;;;;;;;;;5073513;28;20697;-53
2023/06/27 08:19:45;;;;;;;3.43;1.67;;;;;;;;;;5073623;28;20199;-55
2023/06/27 08:22:12;;;;;;;5.10;1.50;;;;;;;;;;5073615;28;20203;-54
2023/06/27 08:24:40;;;;;;;3.17;1.50;;;;;;;;;;5073299;28;20306;-54
2023/06/27 08:27:06;;;;;;;3.27;1.40;;;;;;;;;;5073435;28;20516;-54
2023/06/27 08:29:33;;;;;;;2.90;1.43;;;;;;;;;;5073371;28;20636;-54
2023/06/27 08:32:01;;;;;;;3.70;1.67;;;;;;;;;;5073395;28;20200;-54
2023/06/27 08:34:29;;;;;;;4.00;1.60;;;;;;;;;;5073157;28;20199;-55
2023/06/27 08:36:55;;;;;;;5.47;1.73;;;;;;;;;;5073263;28;20207;-53
2023/06/27 08:39:21;;;;;;;2.17;1.40;;;;;;;;;;5073153;28;20203;-53
2023/06/27 08:41:47;;;;;;;2.60;1.30;;;;;;;;;;5073314;28;20199;-54
2023/06/27 08:44:14;;;;;;;3.87;1.70;;;;;;;;;;5073349;28;20208;-54
2023/06/27 08:46:40;;;;;;;2.83;1.30;;;;;;;;;;5073023;28;20192;-54
2023/06/27 08:49:08;;;;;;;3.10;1.60;;;;;;;;;;5072966;28;20279;-53
2023/06/27 08:51:35;;;;;;;2.37;1.10;;;;;;;;;;5072613;28;20207;-53
2023/06/27 08:54:04;;;;;;;3.53;1.50;;;;;;;;;;5072791;28;20653;-55
2023/06/27 08:56:32;;;;;;;6.03;1.63;;;;;;;;;;5072844;28;20196;-54
2023/06/27 08:59:00;;;;;;;2.07;1.50;;;;;;;;;;5072970;28;20191;-54
2023/06/27 09:01:27;;;;;;;3.63;1.40;;;;;;;;;;5072674;28;20249;-54
2023/06/27 09:03:53;;;;;;;2.17;1.43;;;;;;;;;;5072664;28;20677;-54
2023/06/27 09:06:21;;;;;;;4.13;1.47;;;;;;;;;;5072677;28;20220;-53
2023/06/27 09:08:49;;;;;;;6.37;1.60;;;;;;;;;;5072475;28;20200;-54
2023/06/27 09:11:15;;;;;;;2.77;1.40;;;;;;;;;;5072591;28;20290;-54
2023/06/27 09:13:41;;;;;;;3.80;1.87;;;;;;;;;;5072403;28;20196;-53
2023/06/27 09:16:08;;;;;;;3.20;1.40;;;;;;;;;;5072417;28;20199;-54
2023/06/27 09:18:35;;;;;;;4.73;1.47;;;;;;;;;;5072104;28;20236;-53
2023/06/27 09:21:01;;;;;;;3.40;1.40;;;;;;;;;;5072425;28;20199;-53
2023/06/27 09:23:30;;;;;;;4.13;1.80;;;;;;;;;;5071705;28;20207;-55
2023/06/27 09:26:05;;;;;;;3.27;1.57;;;;;;;;;;5072068;28;20248;-53
2023/06/27 09:28:31;;;;;;;3.17;1.37;;;;;;;;;;5072149;28;20204;-54
2023/06/27 09:30:58;;;;;;;3.53;1.50;;;;;;;;;;5072248;28;20248;-53
2023/06/27 09:33:25;;;;;;;1.50;1.27;;;;;;;;;;5072171;28;20228;-54
2023/06/27 09:35:52;;;;;;;3.27;1.50;;;;;;;;;;5072053;28;20197;-53
2023/06/27 09:38:20;;;;;;;4.40;1.27;;;;;;;;;;5071910;28;20503;-53
2023/06/27 09:40:48;;;;;;;6.70;1.73;;;;;;;;;;5072109;28;20194;-53
2023/06/27 09:43:15;;;;;;;1.93;1.27;;;;;;;;;;5071913;28;20285;-54
2023/06/27 09:45:41;;;;;;;4.87;1.40;;;;;;;;;;5071686;28;20704;-54
2023/06/27 09:48:10;;;;;;;5.90;1.30;;;;;;;;;;5071840;28;20225;-54
2023/06/27 09:50:36;;;;;;;2.57;1.60;;;;;;;;;;5071815;28;20206;-53
2023/06/27 09:53:03;;;;;;;2.23;1.40;;;;;;;;;;5071752;28;20252;-54
2023/06/27 09:55:29;;;;;;;4.30;1.60;;;;;;;;;;5071447;28;20206;-54
2023/06/27 09:57:56;;;;;;;4.10;1.43;;;;;;;;;;5071702;28;20211;-54
2023/06/27 10:00:23;;;;;;;2.07;1.10;;;;;;;;;;5071568;28;20203;-54
2023/06/27 10:02:49;;;;;;;1.77;1.20;;;;;;;;;;5071541;28;20225;-53
2023/06/27 10:05:15;;;;;;;2.30;1.50;;;;;;;;;;5071159;28;20324;-54
2023/06/27 10:07:43;;;;;;;2.03;1.20;;;;;;;;;;5071269;28;20739;-54
2023/06/27 10:10:09;;;;;;;3.73;2.20;;;;;;;;;;5071480;28;20205;-54
2023/06/27 10:12:35;;;;;;;2.83;1.20;;;;;;;;;;5071173;28;20654;-54
2023/06/27 10:15:03;;;;;;;2.10;1.37;;;;;;;;;;5071390;28;20194;-54
2023/06/27 10:17:29;;;;;;;2.53;1.30;;;;;;;;;;5071234;28;20249;-54
2023/06/27 10:19:56;;;;;;;3.70;1.47;;;;;;;;;;5071461;28;20195;-54
2023/06/27 10:22:26;;;;;;;6.00;1.70;;;;;;;;;;5071293;28;20203;-54
2023/06/27 10:24:53;;;;;;;1.50;1.10;;;;;;;;;;5071119;28;20238;-54
2023/06/27 10:27:19;;;;;;;2.00;1.20;;;;;;;;;;5071065;28;20235;-54
2023/06/27 10:29:45;;;;;;;2.40;1.57;;;;;;;;;;5071136;28;20192;-54
2023/06/27 10:32:15;;;;;;;2.33;1.30;;;;;;;;;;5071056;28;20206;-55
2023/06/27 10:34:42;;;;;;;1.93;1.03;;;;;;;;;;5070120;28;20203;-54
2023/06/27 10:37:10;;;;;;;4.33;1.50;;;;;;;;;;5071072;28;20200;-55
2023/06/27 10:39:37;;;;;;;1.90;1.07;;;;;;;;;;5070825;28;20203;-54
2023/06/27 10:42:03;;;;;;;2.27;1.50;;;;;;;;;;5071378;28;20191;-55
2023/06/27 10:44:30;;;;;;;2.17;1.40;;;;;;;;;;5070859;28;20215;-54
2023/06/27 10:47:11;;;;;;;2.83;1.23;;;;;;;;;;5070916;28;20206;-54
2023/06/27 10:49:38;;;;;;;2.30;1.27;;;;;;;;;;5070590;28;20199;-54
2023/06/27 10:52:04;;;;;;;2.47;1.30;;;;;;;;;;5071003;28;20563;-54
2023/06/27 10:54:30;;;;;;;3.20;1.27;;;;;;;;;;5070764;28;20678;-54
2023/06/27 10:56:59;;;;;;;3.07;1.27;;;;;;;;;;5070747;28;20201;-54
2023/06/27 10:59:25;;;;;;;1.90;1.23;;;;;;;;;;5070671;28;20233;-54
2023/06/27 11:01:52;;;;;;;2.27;1.30;;;;;;;;;;5070934;28;20238;-54
2023/06/27 11:04:20;;;;;;;2.43;1.37;;;;;;;;;;5070575;28;20759;-54
2023/06/27 11:06:47;;;;;;;2.67;1.20;;;;;;;;;;5070571;28;20204;-54
2023/06/27 11:09:14;;;;;;;2.63;1.33;;;;;;;;;;5070855;28;20270;-54
2023/06/27 11:11:40;;;;;;;2.50;1.50;;;;;;;;;;5070496;28;20202;-54
2023/06/27 11:14:06;;;;;;;3.87;1.30;;;;;;;;;;5070612;28;20216;-54
2023/06/27 11:16:33;;;;;;;2.37;1.40;;;;;;;;;;5070798;28;20199;-54
2023/06/27 11:19:00;;;;;;;6.27;1.37;;;;;;;;;;5070558;28;20208;-54
2023/06/27 11:21:26;;;;;;;3.80;1.30;;;;;;;;;;5070471;28;20311;-54
2023/06/27 11:23:55;;;;;;;4.20;1.30;;;;;;;;;;5070421;28;20204;-54
2023/06/27 11:26:22;;;;;;;3.27;1.20;;;;;;;;;;5070630;28;20241;-54
2023/06/27 11:28:48;;;;;;;1.53;1.20;;;;;;;;;;5070202;28;20255;-54
2023/06/27 11:31:14;;;;;;;3.93;1.30;;;;;;;;;;5070516;28;20647;-54
2023/06/27 11:33:41;;;;;;;2.23;1.20;;;;;;;;;;5070201;28;20209;-54
2023/06/27 11:36:08;;;;;;;2.53;1.40;;;;;;;;;;5070270;28;20564;-54
2023/06/27 11:38:34;;;;;;;2.57;1.30;;;;;;;;;;5070226;28;20217;-54
2023/06/27 11:41:02;;;;;;;1.93;1.20;;;;;;;;;;5070418;28;20653;-55
2023/06/27 11:43:28;;;;;;;3.43;1.23;;;;;;;;;;5070432;28;20542;-54
2023/06/27 11:45:55;;;;;;;2.40;1.00;;;;;;;;;;5072688;28;20280;-54
2023/06/27 11:48:21;;;;;;;2.80;1.40;;;;;;;;;;5074049;28;20208;-55
2023/06/27 11:50:54;;;;;;;3.00;1.00;;;;;;;;;;5073989;28;20226;-54
2023/06/27 11:53:20;;;;;;;2.37;1.30;;;;;;;;;;5074450;28;20233;-54
2023/06/27 11:55:46;;;;;;;4.23;1.70;;;;;;;;;;5073951;28;20199;-55
2023/06/27 11:58:13;;;;;;;1.97;1.10;;;;;;;;;;5074006;28;20252;-54
2023/06/27 12:00:40;;;;;;;5.63;1.33;;;;;;;;;;5063748;28;20222;-54
2023/06/27 12:03:06;;;;;;;3.50;1.20;;;;;;;;;;5073780;28;20465;-53
2023/06/27 12:05:33;;;;;;;1.70;1.20;;;;;;;;;;5073365;28;20709;-52
2023/06/27 12:08:03;;;;;;;3.47;1.20;;;;;;;;;;5073373;28;20206;-53
2023/06/27 12:10:29;;;;;;;1.93;1.13;;;;;;;;;;5073304;28;20307;-53
2023/06/27 12:12:55;;;;;;;2.20;1.30;;;;;;;;;;5073455;28;20196;-52
2023/06/27 12:15:23;;;;;;;3.03;1.40;;;;;;;;;;5073527;28;20211;-52
2023/06/27 12:17:59;;;;;;;3.43;1.50;;;;;;;;;;5073261;28;20686;-53
2023/06/27 12:20:25;;;;;;;1.93;1.30;;;;;;;;;;5073037;28;20257;-53
2023/06/27 12:22:51;;;;;;;4.07;1.30;;;;;;;;;;5073020;28;20210;-53
2023/06/27 12:25:17;;;;;;;2.33;1.10;;;;;;;;;;5073005;28;20296;-53
2023/06/27 12:27:44;;;;;;;2.50;1.10;;;;;;;;;;5072967;28;20242;-53
2023/06/27 12:30:12;;;;;;;2.47;1.60;;;;;;;;;;5073286;28;20203;-53
2023/06/27 12:32:39;;;;;;;4.00;1.80;;;;;;;;;;5072997;28;20200;-54
2023/06/27 12:35:06;;;;;;;2.07;1.30;;;;;;;;;;5073052;28;20195;-53
2023/06/27 12:37:34;;;;;;;3.27;1.40;;;;;;;;;;5072892;28;20200;-53
2023/06/27 12:40:00;;;;;;;4.20;1.30;;;;;;;;;;5073050;28;20214;-53
2023/06/27 12:42:26;;;;;;;2.43;1.20;;;;;;;;;;5072970;28;20207;-53
2023/06/27 12:44:54;;;;;;;4.03;1.40;;;;;;;;;;5073025;28;20232;-52
2023/06/27 12:47:20;;;;;;;4.40;1.30;;;;;;;;;;5072781;28;20211;-52
2023/06/27 12:49:47;;;;;;;2.33;1.20;;;;;;;;;;5072546;28;20558;-53
2023/06/27 12:52:13;;;;;;;3.73;1.10;;;;;;;;;;5072694;28;20214;-52
2023/06/27 12:54:39;;;;;;;2.90;1.20;;;;;;;;;;5072004;28;20191;-53
2023/06/27 12:57:05;;;;;;;2.57;1.07;;;;;;;;;;5071658;28;20567;-53
2023/06/27 12:59:32;;;;;;;2.67;1.30;;;;;;;;;;5072356;28;20252;-53
2023/06/27 13:02:00;;;;;;;3.27;1.43;;;;;;;;;;5072533;28;20187;-52
2023/06/27 13:04:27;;;;;;;2.80;1.30;;;;;;;;;;5072213;28;20784;-53
2023/06/27 13:06:55;;;;;;;4.03;1.40;;;;;;;;;;5072595;28;20735;-53
2023/06/27 13:09:21;;;;;;;3.57;1.37;;;;;;;;;;5072179;28;20625;-52
2023/06/27 13:11:47;;;;;;;4.23;1.50;;;;;;;;;;5072268;28;20209;-53
2023/06/27 13:14:13;;;;;;;2.07;1.30;;;;;;;;;;5072384;28;20243;-52
2023/06/27 13:16:39;;;;;;;3.23;1.50;;;;;;;;;;5071858;28;20216;-52
2023/06/27 13:19:07;;;;;;;2.50;1.40;;;;;;;;;;5071976;28;20232;-52
2023/06/27 13:21:33;;;;;;;3.80;1.50;;;;;;;;;;5071974;28;20247;-53
2023/06/27 13:24:00;;;;;;;3.03;1.40;;;;;;;;;;5071824;28;20197;-53
2023/06/27 13:26:26;;;;;;;1.77;1.20;;;;;;;;;;5071449;28;20311;-51
2023/06/27 13:28:52;;;;;;;3.03;1.30;;;;;;;;;;5071942;28;20539;-51
2023/06/27 13:31:18;;;;;;;1.80;1.20;;;;;;;;;;5071787;28;20224;-52
2023/06/27 13:33:44;;;;;;;3.50;1.30;;;;;;;;;;5071730;28;20240;-53
2023/06/27 13:36:10;;;;;;;2.03;0.90;;;;;;;;;;5071700;28;20197;-52
2023/06/27 13:38:36;;;;;;;4.17;1.60;;;;;;;;;;5071717;28;20201;-52
2023/06/27 13:41:03;;;;;;;2.03;1.30;;;;;;;;;;5071555;28;20591;-53
2023/06/27 13:43:29;;;;;;;7.50;1.87;;;;;;;;;;5071514;28;20660;-53
2023/06/27 13:45:55;;;;;;;3.17;1.37;;;;;;;;;;5071716;28;20248;-53
2023/06/27 13:48:22;;;;;;;3.03;1.33;;;;;;;;;;5069610;28;20247;-53
2023/06/27 13:50:49;;;;;;;2.63;1.40;;;;;;;;;;5071635;28;20204;-59
2023/06/27 13:53:15;;;;;;;3.00;1.17;;;;;;;;;;5071654;28;20616;-52
2023/06/27 13:55:41;;;;;;;1.50;1.13;;;;;;;;;;5071709;28;20190;-55
2023/06/27 13:58:08;;;;;;;4.50;1.40;;;;;;;;;;5072010;28;20260;-62
2023/06/27 14:00:34;;;;;;;4.50;1.37;;;;;;;;;;5071969;28;20580;-59
2023/06/27 14:03:00;;;;;;;3.97;1.47;;;;;;;;;;5072108;28;20195;-56
2023/06/27 14:05:26;;;;;;;1.43;1.10;;;;;;;;;;5071605;28;20238;-55
2023/06/27 14:07:52;;;;;;;2.07;1.20;;;;;;;;;;5071457;28;20605;-56
2023/06/27 14:10:18;;;;;;;2.70;1.30;;;;;;;;;;5071668;28;20685;-56
2023/06/27 14:12:44;;;;;;;3.63;1.30;;;;;;;;;;5071714;28;20195;-56
2023/06/27 14:15:12;;;;;;;5.27;1.37;;;;;;;;;;5071648;28;20249;-55
2023/06/27 14:17:38;;;;;;;1.63;0.97;;;;;;;;;;5069673;28;20199;-56
2023/06/27 14:20:05;;;;;;;2.17;1.40;;;;;;;;;;5071232;28;20201;-55
2023/06/27 14:22:31;;;;;;;6.33;1.50;;;;;;;;;;5071022;28;20193;-55
2023/06/27 14:24:57;;;;;;;3.30;1.37;;;;;;;;;;5071227;28;20287;-55
2023/06/27 14:27:24;;;;;;;2.47;1.20;;;;;;;;;;5070935;28;20662;-55
2023/06/27 14:29:50;;;;;;;5.17;1.60;;;;;;;;;;5070952;28;20216;-55
2023/06/27 14:32:18;;;;;;;4.33;1.77;;;;;;;;;;5070911;28;20203;-55
2023/06/27 14:34:43;;;;;;;4.17;1.40;;;;;;;;;;5070812;28;20201;-54
2023/06/27 14:37:09;;;;;;;4.33;1.60;;;;;;;;;;5070920;28;20207;-54
2023/06/27 14:39:35;;;;;;;3.70;1.33;;;;;;;;;;5070663;28;20190;-54